sensor_id;sensor_type;location;lat;lon;timestamp;pressure;altitude;pressure_sealevel;temperature;humidity
77723;BME280;67811;42.656;23.394;2023-07-29T00:00:21;94928.66;;;18.96;48.33
77723;BME280;67811;42.656;23.394;2023-07-29T00:02:47;94932.03;;;18.63;49.20
77723;BME280;67811;42.656;23.394;2023-07-29T00:05:12;94937.13;;;18.24;50.56
77723;BME280;67811;42.656;23.394;2023-07-29T00:07:37;94928.91;;;18.02;51.22
77723;BME280;67811;42.656;23.394;2023-07-29T00:10:03;94941.47;;;17.78;52.48
77723;BME280;67811;42.656;23.394;2023-07-29T00:12:28;94930.22;;;17.58;53.73
77723;BME280;67811;42.656;23.394;2023-07-29T00:14:54;94935.72;;;17.51;53.63
77723;BME280;67811;42.656;23.394;2023-07-29T00:17:20;94935.25;;;17.54;53.28
77723;BME280;67811;42.656;23.394;2023-07-29T00:19:45;94933.84;;;17.52;53.80
77723;BME280;67811;42.656;23.394;2023-07-29T00:22:11;94936.75;;;17.38;54.24
77723;BME280;67811;42.656;23.394;2023-07-29T00:24:36;94940.47;;;17.37;54.40
77723;BME280;67811;42.656;23.394;2023-07-29T00:27:01;94924.53;;;17.43;54.28
77723;BME280;67811;42.656;23.394;2023-07-29T00:29:27;94930.13;;;17.53;54.26
77723;BME280;67811;42.656;23.394;2023-07-29T00:31:52;94932.91;;;17.46;54.13
77723;BME280;67811;42.656;23.394;2023-07-29T00:34:17;94931.72;;;17.30;54.76
77723;BME280;67811;42.656;23.394;2023-07-29T00:36:42;94935.41;;;17.18;55.08
77723;BME280;67811;42.656;23.394;2023-07-29T00:39:08;94928.41;;;17.05;55.51
77723;BME280;67811;42.656;23.394;2023-07-29T00:41:33;94934.44;;;17.00;55.79
77723;BME280;67811;42.656;23.394;2023-07-29T00:43:58;94931.41;;;16.97;55.61
77723;BME280;67811;42.656;23.394;2023-07-29T00:46:24;94926.78;;;17.04;55.85
77723;BME280;67811;42.656;23.394;2023-07-29T00:48:49;94919.63;;;17.51;55.04
77723;BME280;67811;42.656;23.394;2023-07-29T00:51:15;94916.53;;;17.78;54.25
77723;BME280;67811;42.656;23.394;2023-07-29T00:53:40;94924.69;;;17.83;53.41
77723;BME280;67811;42.656;23.394;2023-07-29T00:56:06;94917.50;;;17.30;55.11
77723;BME280;67811;42.656;23.394;2023-07-29T00:58:31;94922.97;;;17.23;55.19
77723;BME280;67811;42.656;23.394;2023-07-29T01:00:57;94918.97;;;17.14;55.67
77723;BME280;67811;42.656;23.394;2023-07-29T01:03:22;94916.06;;;17.04;55.74
77723;BME280;67811;42.656;23.394;2023-07-29T01:05:59;94921.63;;;17.02;55.82
77723;BME280;67811;42.656;23.394;2023-07-29T01:08:31;94920.28;;;17.23;56.42
77723;BME280;67811;42.656;23.394;2023-07-29T01:11:05;94910.78;;;17.39;54.91
77723;BME280;67811;42.656;23.394;2023-07-29T01:13:50;94906.13;;;17.46;54.41
77723;BME280;67811;42.656;23.394;2023-07-29T01:16:24;94921.06;;;17.54;54.32
77723;BME280;67811;42.656;23.394;2023-07-29T01:18:53;94912.03;;;17.25;54.99
77723;BME280;67811;42.656;23.394;2023-07-29T01:21:19;94921.84;;;16.89;55.94
77723;BME280;67811;42.656;23.394;2023-07-29T01:23:46;94927.28;;;16.64;57.00
77723;BME280;67811;42.656;23.394;2023-07-29T01:26:11;94927.31;;;16.46;57.55
77723;BME280;67811;42.656;23.394;2023-07-29T01:28:36;94921.78;;;16.29;58.22
77723;BME280;67811;42.656;23.394;2023-07-29T01:33:50;94927.19;;;16.04;59.27
77723;BME280;67811;42.656;23.394;2023-07-29T01:36:22;94919.84;;;15.99;59.29
77723;BME280;67811;42.656;23.394;2023-07-29T01:38:51;94925.19;;;15.99;59.36
77723;BME280;67811;42.656;23.394;2023-07-29T01:41:18;94918.81;;;16.00;59.33
77723;BME280;67811;42.656;23.394;2023-07-29T01:43:44;94920.66;;;16.00;59.43
77723;BME280;67811;42.656;23.394;2023-07-29T01:46:10;94924.16;;;16.00;59.17
77723;BME280;67811;42.656;23.394;2023-07-29T01:48:36;94918.19;;;15.98;59.42
77723;BME280;67811;42.656;23.394;2023-07-29T01:51:01;94914.94;;;15.96;59.43
77723;BME280;67811;42.656;23.394;2023-07-29T01:53:26;94916.50;;;16.04;59.21
77723;BME280;67811;42.656;23.394;2023-07-29T01:55:52;94917.34;;;16.04;59.02
77723;BME280;67811;42.656;23.394;2023-07-29T01:58:18;94916.94;;;16.01;59.14
77723;BME280;67811;42.656;23.394;2023-07-29T02:00:43;94915.75;;;15.97;59.54
77723;BME280;67811;42.656;23.394;2023-07-29T02:03:09;94921.03;;;16.03;59.70
77723;BME280;67811;42.656;23.394;2023-07-29T02:05:34;94925.19;;;16.18;59.17
77723;BME280;67811;42.656;23.394;2023-07-29T02:07:59;94923.19;;;16.13;59.28
77723;BME280;67811;42.656;23.394;2023-07-29T02:10:24;94913.38;;;16.07;59.34
77723;BME280;67811;42.656;23.394;2023-07-29T02:12:50;94927.66;;;16.01;60.11
77723;BME280;67811;42.656;23.394;2023-07-29T02:15:15;94922.16;;;15.96;60.31
77723;BME280;67811;42.656;23.394;2023-07-29T02:17:43;94927.34;;;15.91;60.50
77723;BME280;67811;42.656;23.394;2023-07-29T02:20:08;94931.56;;;15.98;60.24
77723;BME280;67811;42.656;23.394;2023-07-29T02:22:34;94933.56;;;16.40;59.00
77723;BME280;67811;42.656;23.394;2023-07-29T02:24:59;94928.00;;;16.41;58.93
77723;BME280;67811;42.656;23.394;2023-07-29T02:27:25;94934.91;;;16.12;59.51
77723;BME280;67811;42.656;23.394;2023-07-29T02:29:50;94935.53;;;16.63;58.85
77723;BME280;67811;42.656;23.394;2023-07-29T02:32:15;94934.38;;;17.30;57.25
77723;BME280;67811;42.656;23.394;2023-07-29T02:34:40;94927.00;;;17.14;56.79
77723;BME280;67811;42.656;23.394;2023-07-29T02:37:06;94932.72;;;16.57;58.05
77723;BME280;67811;42.656;23.394;2023-07-29T02:39:31;94928.81;;;16.23;59.94
77723;BME280;67811;42.656;23.394;2023-07-29T02:41:56;94924.34;;;16.72;58.02
77723;BME280;67811;42.656;23.394;2023-07-29T02:44:21;94926.28;;;17.49;57.20
77723;BME280;67811;42.656;23.394;2023-07-29T02:46:47;94929.38;;;17.22;56.22
77723;BME280;67811;42.656;23.394;2023-07-29T02:49:12;94923.69;;;16.89;57.51
77723;BME280;67811;42.656;23.394;2023-07-29T02:51:37;94922.16;;;16.32;58.83
77723;BME280;67811;42.656;23.394;2023-07-29T02:54:02;94920.22;;;16.21;59.88
77723;BME280;67811;42.656;23.394;2023-07-29T02:56:28;94919.47;;;16.81;58.55
77723;BME280;67811;42.656;23.394;2023-07-29T02:58:53;94920.25;;;17.53;57.02
77723;BME280;67811;42.656;23.394;2023-07-29T03:01:18;94922.66;;;19.22;52.51
77723;BME280;67811;42.656;23.394;2023-07-29T03:03:43;94922.44;;;20.08;48.74
77723;BME280;67811;42.656;23.394;2023-07-29T03:06:11;94927.31;;;19.72;49.80
77723;BME280;67811;42.656;23.394;2023-07-29T03:08:36;94941.16;;;18.50;51.80
77723;BME280;67811;42.656;23.394;2023-07-29T03:11:12;94937.56;;;17.51;55.13
77723;BME280;67811;42.656;23.394;2023-07-29T03:13:38;94946.13;;;16.76;57.22
77723;BME280;67811;42.656;23.394;2023-07-29T03:16:14;94947.22;;;16.31;59.05
77723;BME280;67811;42.656;23.394;2023-07-29T03:18:41;94946.50;;;16.06;60.26
77723;BME280;67811;42.656;23.394;2023-07-29T03:21:07;94952.56;;;16.31;60.68
77723;BME280;67811;42.656;23.394;2023-07-29T03:23:33;94955.25;;;16.50;59.19
77723;BME280;67811;42.656;23.394;2023-07-29T03:25:59;94952.81;;;16.97;58.73
77723;BME280;67811;42.656;23.394;2023-07-29T03:28:27;94955.78;;;17.19;56.47
77723;BME280;67811;42.656;23.394;2023-07-29T03:30:53;94954.13;;;17.48;56.58
77723;BME280;67811;42.656;23.394;2023-07-29T03:33:18;94940.28;;;18.21;54.34
77723;BME280;67811;42.656;23.394;2023-07-29T03:35:44;94940.63;;;18.36;53.69
77723;BME280;67811;42.656;23.394;2023-07-29T03:38:09;94951.66;;;17.46;55.53
77723;BME280;67811;42.656;23.394;2023-07-29T03:40:34;94956.81;;;16.76;58.03
77723;BME280;67811;42.656;23.394;2023-07-29T03:43:00;94965.22;;;16.24;60.02
77723;BME280;67811;42.656;23.394;2023-07-29T03:45:25;94955.63;;;15.98;60.87
77723;BME280;67811;42.656;23.394;2023-07-29T03:47:50;94957.94;;;15.95;61.43
77723;BME280;67811;42.656;23.394;2023-07-29T03:50:15;94954.22;;;15.96;61.76
77723;BME280;67811;42.656;23.394;2023-07-29T03:52:41;94955.75;;;16.03;61.23
77723;BME280;67811;42.656;23.394;2023-07-29T03:55:06;94959.72;;;16.01;61.62
77723;BME280;67811;42.656;23.394;2023-07-29T03:57:32;94950.56;;;16.08;61.54
77723;BME280;67811;42.656;23.394;2023-07-29T03:59:57;94945.44;;;16.25;61.07
77723;BME280;67811;42.656;23.394;2023-07-29T04:02:22;94951.97;;;16.66;59.67
77723;BME280;67811;42.656;23.394;2023-07-29T04:04:47;94954.66;;;16.66;59.23
77723;BME280;67811;42.656;23.394;2023-07-29T04:07:13;94958.06;;;16.73;59.44
77723;BME280;67811;42.656;23.394;2023-07-29T04:09:38;94955.53;;;16.78;59.67
77723;BME280;67811;42.656;23.394;2023-07-29T04:12:04;94953.00;;;16.83;60.79
77723;BME280;67811;42.656;23.394;2023-07-29T04:14:29;94958.97;;;17.27;60.33
77723;BME280;67811;42.656;23.394;2023-07-29T04:16:54;94955.75;;;17.37;59.38
77723;BME280;67811;42.656;23.394;2023-07-29T04:19:20;94965.88;;;17.47;58.33
77723;BME280;67811;42.656;23.394;2023-07-29T04:21:45;94963.63;;;17.97;58.17
77723;BME280;67811;42.656;23.394;2023-07-29T04:24:10;94963.84;;;18.19;58.27
77723;BME280;67811;42.656;23.394;2023-07-29T04:26:36;94963.09;;;18.47;57.36
77723;BME280;67811;42.656;23.394;2023-07-29T04:29:01;94953.84;;;19.07;55.82
77723;BME280;67811;42.656;23.394;2023-07-29T04:31:26;94954.78;;;19.29;55.18
77723;BME280;67811;42.656;23.394;2023-07-29T04:33:51;94945.53;;;19.70;53.68
77723;BME280;67811;42.656;23.394;2023-07-29T04:36:17;94946.66;;;19.58;54.13
77723;BME280;67811;42.656;23.394;2023-07-29T04:38:42;94948.22;;;19.87;53.20
77723;BME280;67811;42.656;23.394;2023-07-29T04:41:07;94951.16;;;19.86;53.38
77723;BME280;67811;42.656;23.394;2023-07-29T04:43:32;94955.78;;;20.07;52.76
77723;BME280;67811;42.656;23.394;2023-07-29T04:45:58;94959.09;;;20.14;52.36
77723;BME280;67811;42.656;23.394;2023-07-29T04:48:23;94958.84;;;20.55;51.27
77723;BME280;67811;42.656;23.394;2023-07-29T04:50:48;94962.00;;;20.30;51.65
77723;BME280;67811;42.656;23.394;2023-07-29T04:53:13;94952.69;;;20.37;51.65
77723;BME280;67811;42.656;23.394;2023-07-29T04:55:41;94963.63;;;20.47;51.76
77723;BME280;67811;42.656;23.394;2023-07-29T04:58:06;94965.69;;;21.06;49.95
77723;BME280;67811;42.656;23.394;2023-07-29T05:00:32;94970.75;;;20.81;50.29
77723;BME280;67811;42.656;23.394;2023-07-29T05:02:57;94966.13;;;20.76;50.06
77723;BME280;67811;42.656;23.394;2023-07-29T05:05:22;94969.53;;;20.66;50.02
77723;BME280;67811;42.656;23.394;2023-07-29T05:07:47;94968.56;;;20.99;49.25
77723;BME280;67811;42.656;23.394;2023-07-29T05:10:13;94972.59;;;21.24;49.08
77723;BME280;67811;42.656;23.394;2023-07-29T05:12:38;94976.72;;;21.04;49.05
77723;BME280;67811;42.656;23.394;2023-07-29T05:15:04;94978.94;;;21.13;48.60
77723;BME280;67811;42.656;23.394;2023-07-29T05:17:29;94974.34;;;21.35;48.28
77723;BME280;67811;42.656;23.394;2023-07-29T05:19:54;94975.72;;;21.65;47.18
77723;BME280;67811;42.656;23.394;2023-07-29T05:22:20;94976.31;;;21.72;46.85
77723;BME280;67811;42.656;23.394;2023-07-29T05:24:45;94973.84;;;21.65;46.71
77723;BME280;67811;42.656;23.394;2023-07-29T05:27:10;94979.50;;;21.69;47.28
77723;BME280;67811;42.656;23.394;2023-07-29T05:29:35;94980.63;;;21.73;46.57
77723;BME280;67811;42.656;23.394;2023-07-29T05:32:01;94980.63;;;22.05;46.24
77723;BME280;67811;42.656;23.394;2023-07-29T05:34:26;94981.72;;;22.46;45.89
77723;BME280;67811;42.656;23.394;2023-07-29T05:36:51;94988.56;;;22.64;44.37
77723;BME280;67811;42.656;23.394;2023-07-29T05:39:17;94975.56;;;22.14;45.25
77723;BME280;67811;42.656;23.394;2023-07-29T05:41:42;94986.59;;;22.49;44.42
77723;BME280;67811;42.656;23.394;2023-07-29T05:44:07;94982.56;;;22.57;44.37
77723;BME280;67811;42.656;23.394;2023-07-29T05:46:32;94988.84;;;22.68;43.93
77723;BME280;67811;42.656;23.394;2023-07-29T05:48:58;94983.66;;;22.56;44.49
77723;BME280;67811;42.656;23.394;2023-07-29T05:51:23;94988.44;;;22.39;45.05
77723;BME280;67811;42.656;23.394;2023-07-29T05:53:48;94985.69;;;22.81;44.94
77723;BME280;67811;42.656;23.394;2023-07-29T05:56:14;94987.13;;;22.99;44.20
77723;BME280;67811;42.656;23.394;2023-07-29T05:58:39;94993.13;;;23.16;43.92
77723;BME280;67811;42.656;23.394;2023-07-29T06:01:04;94986.44;;;23.44;43.21
77723;BME280;67811;42.656;23.394;2023-07-29T06:03:29;94994.56;;;23.44;42.98
77723;BME280;67811;42.656;23.394;2023-07-29T06:05:55;94977.22;;;23.25;43.17
77723;BME280;67811;42.656;23.394;2023-07-29T06:08:20;94987.84;;;22.84;43.64
77723;BME280;67811;42.656;23.394;2023-07-29T06:10:46;94986.41;;;23.29;43.35
77723;BME280;67811;42.656;23.394;2023-07-29T06:13:11;94975.63;;;23.44;42.29
77723;BME280;67811;42.656;23.394;2023-07-29T06:15:36;94974.53;;;23.40;42.13
77723;BME280;67811;42.656;23.394;2023-07-29T06:18:01;94992.47;;;23.82;41.90
77723;BME280;67811;42.656;23.394;2023-07-29T06:20:27;94976.75;;;24.30;41.37
77723;BME280;67811;42.656;23.394;2023-07-29T06:22:52;94974.53;;;24.62;40.52
77723;BME280;67811;42.656;23.394;2023-07-29T06:25:17;94972.66;;;24.58;40.32
77723;BME280;67811;42.656;23.394;2023-07-29T06:27:43;94973.69;;;24.72;39.95
77723;BME280;67811;42.656;23.394;2023-07-29T06:30:08;94975.63;;;24.61;39.15
77723;BME280;67811;42.656;23.394;2023-07-29T06:32:34;94970.41;;;24.85;39.53
77723;BME280;67811;42.656;23.394;2023-07-29T06:34:59;94969.78;;;25.09;38.93
77723;BME280;67811;42.656;23.394;2023-07-29T06:37:25;94966.78;;;25.05;38.68
77723;BME280;67811;42.656;23.394;2023-07-29T06:39:50;94961.47;;;24.80;39.48
77723;BME280;67811;42.656;23.394;2023-07-29T06:42:15;94958.41;;;25.07;38.84
77723;BME280;67811;42.656;23.394;2023-07-29T06:44:40;94959.47;;;25.11;38.08
77723;BME280;67811;42.656;23.394;2023-07-29T06:47:06;94953.03;;;24.91;38.44
77723;BME280;67811;42.656;23.394;2023-07-29T06:49:31;94961.53;;;25.34;37.97
77723;BME280;67811;42.656;23.394;2023-07-29T06:51:56;94951.94;;;25.47;37.63
77723;BME280;67811;42.656;23.394;2023-07-29T06:54:25;94955.63;;;25.66;38.01
77723;BME280;67811;42.656;23.394;2023-07-29T06:56:50;94950.44;;;26.04;37.88
77723;BME280;67811;42.656;23.394;2023-07-29T06:59:15;94939.25;;;26.40;36.63
77723;BME280;67811;42.656;23.394;2023-07-29T07:01:41;94943.38;;;26.85;36.76
77723;BME280;67811;42.656;23.394;2023-07-29T07:04:06;94950.84;;;26.50;36.51
77723;BME280;67811;42.656;23.394;2023-07-29T07:06:31;94949.50;;;26.96;36.43
77723;BME280;67811;42.656;23.394;2023-07-29T07:08:57;94950.47;;;26.81;35.44
77723;BME280;67811;42.656;23.394;2023-07-29T07:11:22;94949.41;;;26.82;36.40
77723;BME280;67811;42.656;23.394;2023-07-29T07:13:47;94945.94;;;27.19;35.52
77723;BME280;67811;42.656;23.394;2023-07-29T07:16:12;94959.50;;;27.43;34.74
77723;BME280;67811;42.656;23.394;2023-07-29T07:18:38;94962.41;;;27.71;34.13
77723;BME280;67811;42.656;23.394;2023-07-29T07:21:03;94951.13;;;27.40;34.34
77723;BME280;67811;42.656;23.394;2023-07-29T07:23:28;94955.53;;;27.54;34.06
77723;BME280;67811;42.656;23.394;2023-07-29T07:25:53;94956.84;;;27.95;34.46
77723;BME280;67811;42.656;23.394;2023-07-29T07:28:19;94934.00;;;28.56;32.64
77723;BME280;67811;42.656;23.394;2023-07-29T07:30:44;94941.34;;;29.38;32.02
77723;BME280;67811;42.656;23.394;2023-07-29T07:33:09;94938.94;;;29.36;31.35
77723;BME280;67811;42.656;23.394;2023-07-29T07:35:35;94944.22;;;29.91;30.30
77723;BME280;67811;42.656;23.394;2023-07-29T07:38:00;94940.31;;;30.06;30.96
77723;BME280;67811;42.656;23.394;2023-07-29T07:40:25;94942.50;;;29.96;30.36
77723;BME280;67811;42.656;23.394;2023-07-29T07:42:51;94939.56;;;29.20;30.52
77723;BME280;67811;42.656;23.394;2023-07-29T07:45:16;94936.34;;;28.76;32.02
77723;BME280;67811;42.656;23.394;2023-07-29T07:47:41;94939.66;;;29.14;32.08
77723;BME280;67811;42.656;23.394;2023-07-29T07:50:07;94940.13;;;29.58;30.79
77723;BME280;67811;42.656;23.394;2023-07-29T07:52:32;94938.50;;;29.57;30.28
77723;BME280;67811;42.656;23.394;2023-07-29T07:54:57;94929.69;;;30.05;29.77
77723;BME280;67811;42.656;23.394;2023-07-29T07:57:22;94932.34;;;30.41;29.55
77723;BME280;67811;42.656;23.394;2023-07-29T07:59:48;94938.03;;;30.84;28.39
77723;BME280;67811;42.656;23.394;2023-07-29T08:02:13;94924.47;;;30.70;28.36
77723;BME280;67811;42.656;23.394;2023-07-29T08:04:38;94942.69;;;30.53;28.52
77723;BME280;67811;42.656;23.394;2023-07-29T08:07:04;94940.97;;;30.65;28.73
77723;BME280;67811;42.656;23.394;2023-07-29T08:09:29;94939.47;;;30.82;27.86
77723;BME280;67811;42.656;23.394;2023-07-29T08:11:55;94938.28;;;31.14;27.66
77723;BME280;67811;42.656;23.394;2023-07-29T08:14:20;94941.59;;;30.85;27.97
77723;BME280;67811;42.656;23.394;2023-07-29T08:16:45;94941.91;;;30.92;28.30
77723;BME280;67811;42.656;23.394;2023-07-29T08:19:10;94932.44;;;30.89;27.40
77723;BME280;67811;42.656;23.394;2023-07-29T08:21:36;94938.03;;;30.84;27.46
77723;BME280;67811;42.656;23.394;2023-07-29T08:24:01;94942.72;;;31.32;27.30
77723;BME280;67811;42.656;23.394;2023-07-29T08:26:26;94940.31;;;30.82;27.48
77723;BME280;67811;42.656;23.394;2023-07-29T08:28:52;94937.88;;;30.27;28.55
77723;BME280;67811;42.656;23.394;2023-07-29T08:31:17;94937.28;;;31.01;28.47
77723;BME280;67811;42.656;23.394;2023-07-29T08:33:42;94933.69;;;30.83;27.77
77723;BME280;67811;42.656;23.394;2023-07-29T08:36:07;94933.94;;;31.13;26.89
77723;BME280;67811;42.656;23.394;2023-07-29T08:38:33;94932.19;;;31.17;26.77
77723;BME280;67811;42.656;23.394;2023-07-29T08:41:14;94928.72;;;31.68;26.63
77723;BME280;67811;42.656;23.394;2023-07-29T08:43:51;94930.19;;;32.00;25.97
77723;BME280;67811;42.656;23.394;2023-07-29T08:46:19;94930.53;;;31.82;26.20
77723;BME280;67811;42.656;23.394;2023-07-29T08:48:45;94926.63;;;32.00;25.77
77723;BME280;67811;42.656;23.394;2023-07-29T08:51:12;94917.00;;;31.02;25.80
77723;BME280;67811;42.656;23.394;2023-07-29T08:53:38;94916.16;;;30.93;26.14
77723;BME280;67811;42.656;23.394;2023-07-29T08:56:04;94912.09;;;30.82;26.37
77723;BME280;67811;42.656;23.394;2023-07-29T08:58:29;94904.00;;;30.68;26.31
77723;BME280;67811;42.656;23.394;2023-07-29T09:00:55;94913.09;;;31.52;26.39
77723;BME280;67811;42.656;23.394;2023-07-29T09:03:21;94913.25;;;31.64;25.53
77723;BME280;67811;42.656;23.394;2023-07-29T09:05:46;94905.34;;;32.14;25.38
77723;BME280;67811;42.656;23.394;2023-07-29T09:08:12;94904.03;;;32.76;24.17
77723;BME280;67811;42.656;23.394;2023-07-29T09:10:37;94901.75;;;32.78;23.32
77723;BME280;67811;42.656;23.394;2023-07-29T09:13:04;94904.75;;;33.02;22.93
77723;BME280;67811;42.656;23.394;2023-07-29T09:15:31;94905.81;;;33.10;21.56
77723;BME280;67811;42.656;23.394;2023-07-29T09:17:57;94897.81;;;32.58;21.66
77723;BME280;67811;42.656;23.394;2023-07-29T09:20:27;94902.66;;;32.99;21.80
77723;BME280;67811;42.656;23.394;2023-07-29T09:22:54;94890.91;;;33.20;21.51
77723;BME280;67811;42.656;23.394;2023-07-29T09:25:24;94886.84;;;33.68;20.70
77723;BME280;67811;42.656;23.394;2023-07-29T09:27:50;94876.22;;;33.99;20.78
77723;BME280;67811;42.656;23.394;2023-07-29T09:30:16;94883.63;;;33.66;21.29
77723;BME280;67811;42.656;23.394;2023-07-29T09:32:41;94872.00;;;33.18;21.88
77723;BME280;67811;42.656;23.394;2023-07-29T09:35:10;94882.19;;;32.79;21.76
77723;BME280;67811;42.656;23.394;2023-07-29T09:37:36;94881.94;;;33.32;21.40
77723;BME280;67811;42.656;23.394;2023-07-29T09:40:02;94878.19;;;33.78;20.60
77723;BME280;67811;42.656;23.394;2023-07-29T09:42:28;94877.72;;;33.76;21.12
77723;BME280;67811;42.656;23.394;2023-07-29T09:44:53;94882.78;;;33.23;21.34
77723;BME280;67811;42.656;23.394;2023-07-29T09:47:22;94879.44;;;33.47;21.11
77723;BME280;67811;42.656;23.394;2023-07-29T09:49:48;94868.53;;;33.93;20.57
77723;BME280;67811;42.656;23.394;2023-07-29T09:52:21;94876.88;;;33.42;20.27
77723;BME280;67811;42.656;23.394;2023-07-29T09:54:47;94872.72;;;33.07;21.16
77723;BME280;67811;42.656;23.394;2023-07-29T09:57:17;94858.66;;;33.29;21.53
77723;BME280;67811;42.656;23.394;2023-07-29T09:59:43;94862.41;;;33.87;20.25
77723;BME280;67811;42.656;23.394;2023-07-29T10:02:14;94860.00;;;34.52;20.14
77723;BME280;67811;42.656;23.394;2023-07-29T10:04:41;94851.34;;;34.29;19.35
77723;BME280;67811;42.656;23.394;2023-07-29T10:07:07;94850.50;;;34.62;20.04
77723;BME280;67811;42.656;23.394;2023-07-29T10:09:33;94856.81;;;34.99;19.16
77723;BME280;67811;42.656;23.394;2023-07-29T10:11:59;94854.63;;;35.17;19.44
77723;BME280;67811;42.656;23.394;2023-07-29T10:14:27;94853.00;;;34.67;19.16
77723;BME280;67811;42.656;23.394;2023-07-29T10:16:53;94855.78;;;35.03;19.33
77723;BME280;67811;42.656;23.394;2023-07-29T10:19:19;94851.34;;;35.39;18.93
77723;BME280;67811;42.656;23.394;2023-07-29T10:21:46;94845.91;;;35.02;19.18
77723;BME280;67811;42.656;23.394;2023-07-29T10:24:19;94849.03;;;35.53;18.87
77723;BME280;67811;42.656;23.394;2023-07-29T10:26:46;94835.44;;;35.20;18.64
77723;BME280;67811;42.656;23.394;2023-07-29T10:29:12;94833.22;;;35.50;17.98
77723;BME280;67811;42.656;23.394;2023-07-29T10:31:40;94828.03;;;35.77;18.20
77723;BME280;67811;42.656;23.394;2023-07-29T10:34:08;94823.94;;;35.71;18.61
77723;BME280;67811;42.656;23.394;2023-07-29T10:36:35;94814.97;;;35.46;18.28
77723;BME280;67811;42.656;23.394;2023-07-29T10:39:01;94810.69;;;35.76;18.79
77723;BME280;67811;42.656;23.394;2023-07-29T10:42:07;94811.25;;;35.54;18.03
77723;BME280;67811;42.656;23.394;2023-07-29T10:47:26;94808.06;;;36.39;17.70
77723;BME280;67811;42.656;23.394;2023-07-29T10:49:58;94809.19;;;36.07;16.77
77723;BME280;67811;42.656;23.394;2023-07-29T10:54:54;94797.13;;;36.59;16.92
77723;BME280;67811;42.656;23.394;2023-07-29T10:57:37;94799.94;;;36.78;17.13
77723;BME280;67811;42.656;23.394;2023-07-29T11:00:04;94800.31;;;36.92;16.67
77723;BME280;67811;42.656;23.394;2023-07-29T11:02:35;94792.31;;;36.56;15.98
77723;BME280;67811;42.656;23.394;2023-07-29T11:05:05;94790.72;;;36.55;15.64
77723;BME280;67811;42.656;23.394;2023-07-29T11:07:31;94795.06;;;35.12;16.30
77723;BME280;67811;42.656;23.394;2023-07-29T11:10:08;94783.97;;;34.35;17.67
77723;BME280;67811;42.656;23.394;2023-07-29T11:12:47;94781.91;;;34.69;18.26
77723;BME280;67811;42.656;23.394;2023-07-29T11:15:26;94776.56;;;35.81;17.57
77723;BME280;67811;42.656;23.394;2023-07-29T11:17:57;94782.59;;;36.14;17.46
77723;BME280;67811;42.656;23.394;2023-07-29T11:20:25;94779.13;;;36.33;16.89
77723;BME280;67811;42.656;23.394;2023-07-29T11:22:52;94774.88;;;35.92;17.15
77723;BME280;67811;42.656;23.394;2023-07-29T11:25:18;94782.28;;;35.88;17.54
77723;BME280;67811;42.656;23.394;2023-07-29T11:27:44;94770.59;;;36.23;17.29
77723;BME280;67811;42.656;23.394;2023-07-29T11:30:12;94776.91;;;36.23;17.30
77723;BME280;67811;42.656;23.394;2023-07-29T11:32:39;94779.72;;;35.95;17.04
77723;BME280;67811;42.656;23.394;2023-07-29T11:35:07;94772.09;;;35.76;17.08
77723;BME280;67811;42.656;23.394;2023-07-29T11:37:33;94768.53;;;36.20;16.85
77723;BME280;67811;42.656;23.394;2023-07-29T11:39:59;94760.91;;;36.45;16.79
77723;BME280;67811;42.656;23.394;2023-07-29T11:42:26;94760.03;;;36.76;15.93
77723;BME280;67811;42.656;23.394;2023-07-29T11:44:51;94766.91;;;36.82;16.04
77723;BME280;67811;42.656;23.394;2023-07-29T11:47:17;94766.19;;;36.69;16.14
77723;BME280;67811;42.656;23.394;2023-07-29T11:49:42;94752.88;;;36.39;15.76
77723;BME280;67811;42.656;23.394;2023-07-29T11:52:08;94751.56;;;37.19;16.26
77723;BME280;67811;42.656;23.394;2023-07-29T11:54:37;94754.78;;;37.41;16.00
77723;BME280;67811;42.656;23.394;2023-07-29T11:57:07;94749.97;;;37.18;15.87
77723;BME280;67811;42.656;23.394;2023-07-29T11:59:34;94757.50;;;37.02;15.73
77723;BME280;67811;42.656;23.394;2023-07-29T12:02:01;94759.47;;;37.02;15.63
77723;BME280;67811;42.656;23.394;2023-07-29T12:04:26;94754.00;;;36.70;15.99
77723;BME280;67811;42.656;23.394;2023-07-29T12:06:52;94743.44;;;36.56;16.17
77723;BME280;67811;42.656;23.394;2023-07-29T12:09:17;94735.25;;;36.95;15.66
77723;BME280;67811;42.656;23.394;2023-07-29T12:11:43;94723.97;;;37.58;16.01
77723;BME280;67811;42.656;23.394;2023-07-29T12:14:08;94732.13;;;37.74;15.48
77723;BME280;67811;42.656;23.394;2023-07-29T12:16:43;94721.13;;;37.97;15.12
77723;BME280;67811;42.656;23.394;2023-07-29T12:19:12;94727.34;;;37.71;14.99
77723;BME280;67811;42.656;23.394;2023-07-29T12:21:37;94728.09;;;37.49;15.17
77723;BME280;67811;42.656;23.394;2023-07-29T12:24:03;94725.19;;;37.22;15.19
77723;BME280;67811;42.656;23.394;2023-07-29T12:26:29;94726.84;;;37.07;15.97
77723;BME280;67811;42.656;23.394;2023-07-29T12:28:54;94717.75;;;37.07;15.91
77723;BME280;67811;42.656;23.394;2023-07-29T12:31:20;94718.72;;;36.79;15.83
77723;BME280;67811;42.656;23.394;2023-07-29T12:33:45;94719.06;;;37.32;15.92
77723;BME280;67811;42.656;23.394;2023-07-29T12:36:10;94711.63;;;37.75;14.94
77723;BME280;67811;42.656;23.394;2023-07-29T12:38:36;94717.88;;;37.14;15.58
77723;BME280;67811;42.656;23.394;2023-07-29T12:41:01;94719.44;;;37.50;15.53
77723;BME280;67811;42.656;23.394;2023-07-29T12:43:26;94715.13;;;37.53;15.18
77723;BME280;67811;42.656;23.394;2023-07-29T12:45:52;94712.56;;;36.70;15.12
77723;BME280;67811;42.656;23.394;2023-07-29T12:48:17;94712.06;;;36.64;15.38
77723;BME280;67811;42.656;23.394;2023-07-29T12:50:42;94715.44;;;37.28;15.40
77723;BME280;67811;42.656;23.394;2023-07-29T12:53:09;94712.06;;;37.19;15.07